Date,TemperatureHighF,TemperatureAvgF,TemperatureLowF,DewpointHighF,DewpointAvgF,DewpointLowF,HumidityHigh,HumidityAvg,HumidityLow,PressureMaxIn,PressureMinIn,WindSpeedMaxMPH,WindSpeedAvgMPH,GustSpeedMaxMPH,PrecipitationSumIn
2012-10-26,82,63,46,46,19,14,45,20,13,29.68,27.17,4,1,4,15.89
2012-10-27,92,70,0,36,25,14,27,19,9,27.29,27.11,6,2,14,15.89
2012-10-28,96,71,50,39,27,19,38,21,9,27.34,27.17,6,1,10,15.89
2012-10-29,94,77,52,41,31,23,40,20,10,27.43,27.23,6,2,10,15.89
2012-10-30,94,72,51,41,29,21,42,22,9,27.43,27.20,6,1,10,15.89
2012-10-31,94,71,49,37,27,16,42,22,9,27.37,27.17,5,1,8,15.89
2012-11-1,94,71,49,36,25,18,36,20,9,27.32,27.11,6,1,10,15.89
2012-11-2,90,68,50,37,32,23,39,27,15,27.32,27.11,5,1,10,0.00
2012-11-3,89,69,51,43,35,27,50,30,16,27.40,27.17,4,1,7,0.00
2012-11-4,87,69,50,39,31,25,49,27,13,27.43,27.26,4,1,8,0.00
2012-11-5,89,70,0,37,27,19,40,21,10,27.46,27.26,3,1,7,0.00
2012-11-6,90,69,48,34,24,18,35,20,10,27.46,27.23,4,1,8,0.00
2012-11-7,91,71,50,36,25,19,35,20,10,27.40,27.17,5,1,8,0.00
2012-11-8,86,69,57,50,34,27,56,30,13,27.32,27.11,10,1,19,0.00
2012-11-9,81,69,0,55,46,32,75,45,30,27.23,27.02,9,3,17,0.00
2012-11-10,66,56,46,48,32,21,79,44,24,27.40,27.11,8,5,10,0.00
2012-11-11,62,50,36,28,20,12,51,31,19,27.61,27.40,4,3,8,0.00
2012-11-12,71,53,34,21,14,9,41,23,12,27.61,27.37,15,3,24,0.00
2012-11-13,79,56,36,27,14,9,38,21,10,27.52,27.29,4,1,6,0.00
2012-11-14,45,43,41,14,12,10,29,28,25,27.46,27.40,0,0,0,0.00
2012-11-18,71,66,64,41,38,37,41,36,29,27.37,27.32,2,0,4,0.00
2012-11-19,79,61,0,45,38,32,73,42,23,27.52,27.37,3,0,6,0.00
2012-11-20,82,61,0,41,35,30,73,42,20,27.49,27.23,6,1,13,0.00
2012-11-21,83,65,50,43,34,27,57,34,17,29.80,27.23,3,0,8,0.00
2012-11-22,83,62,44,37,29,23,54,32,12,29.91,29.74,3,0,8,0.00
2012-11-23,87,65,45,37,28,23,44,27,13,30.03,29.77,6,1,11,0.00
2012-11-24,84,69,56,37,29,25,34,23,16,29.94,29.65,9,3,17,0.00
2012-11-25,86,64,47,37,24,9,47,24,9,29.80,29.59,8,1,17,0.00
2012-11-26,80,60,42,34,22,12,38,24,13,29.91,29.71,3,1,6,0.00
2012-11-27,84,63,44,36,26,19,40,26,14,29.97,29.77,5,1,10,0.00
2012-11-28,81,62,46,37,30,23,46,31,20,29.97,29.80,6,1,9,0.00
2012-11-29,77,60,43,37,31,27,55,35,18,30.00,29.85,5,1,16,0.00
2012-11-30,76,60,42,39,32,25,51,37,23,29.97,29.77,3,1,6,0.00
2012-12-1,76,58,42,39,32,25,64,39,22,29.94,29.74,3,0,6,0.00
2012-12-2,81,60,41,36,27,23,48,31,15,29.94,29.71,5,1,10,0.00
2012-12-3,78,59,0,37,30,23,46,34,22,29.97,29.77,4,1,10,0.00
2012-12-4,77,59,44,41,33,28,57,39,21,30.03,29.83,3,1,6,0.00
2012-12-5,81,62,45,37,30,25,54,33,14,29.94,29.68,4,0,6,0.00
2012-12-6,77,60,43,34,28,23,45,31,21,29.80,29.56,4,1,8,0.00
2012-12-7,75,59,43,34,29,21,46,32,21,29.77,29.59,6,1,11,0.00
2012-12-8,76,57,40,41,29,23,56,37,22,29.80,29.62,5,1,10,0.00
2012-12-9,73,55,38,34,22,16,52,31,14,29.88,29.71,10,2,15,0.00
2012-12-10,65,50,38,23,13,1,34,23,14,29.94,29.74,4,1,8,0.00
2012-12-11,67,47,30,18,9,1,32,22,12,29.91,29.74,3,0,6,0.00
2012-12-12,72,52,34,25,15,7,31,24,14,29.88,29.65,5,1,10,0.00
2012-12-13,72,55,37,52,32,16,91,44,22,29.80,29.53,8,2,22,0.00
2012-12-14,58,50,43,52,39,32,92,67,38,29.83,29.50,9,3,17,0.04
2012-12-15,60,52,0,43,40,36,75,62,43,29.83,29.71,6,2,15,0.04
2012-12-16,60,50,39,46,37,27,95,65,34,29.97,29.80,6,1,10,0.08
2012-12-17,64,47,34,39,34,32,90,63,33,30.00,29.80,4,1,8,0.00
2012-12-18,72,52,0,43,38,32,92,62,28,29.80,29.53,9,1,14,0.00
2012-12-19,58,47,36,46,30,23,86,53,35,30.06,29.59,13,3,24,0.09
2012-12-20,64,46,30,30,23,16,87,51,16,30.09,29.88,12,4,24,0.00
2012-12-21,70,59,0,23,17,9,37,20,14,29.94,0.00,12,4,26,0.00
2012-12-22,73,56,0,36,31,23,55,39,21,29.91,29.77,6,1,14,0.00
2012-12-23,69,53,0,39,33,28,81,49,24,29.97,29.77,3,1,8,0.00
2012-12-24,66,50,0,37,34,30,72,54,30,29.85,29.65,6,1,12,0.00
2012-12-25,53,48,0,23,21,19,39,33,28,29.83,0.00,3,1,5,0.00
2012-12-26,68,50,38,32,24,16,62,38,15,29.80,29.59,4,1,7,0.00
2012-12-27,60,43,31,32,25,18,71,49,29,29.85,29.62,10,2,18,0.00
2012-12-28,59,44,28,30,25,21,81,52,29,29.94,29.83,4,1,6,0.00
2012-12-29,65,46,29,28,22,19,72,42,18,29.91,29.68,8,2,18,0.00
2012-12-30,62,43,35,37,26,19,83,53,25,29.77,29.59,10,1,17,0.08
2012-12-31,54,43,33,39,31,21,88,65,36,30.00,29.77,8,2,13,0.08
2013-1-1,56,41,27,32,24,19,86,55,27,30.03,29.83,6,1,11,0.00